createdAt,value
2023-05-10T00:00:30.354Z,21.75
2023-05-10T00:02:57.767Z,20.17
2023-05-10T00:05:24.653Z,20.88
2023-05-10T00:07:51.643Z,20.15
2023-05-10T00:10:18.771Z,21.00
2023-05-10T00:12:45.810Z,21.75
2023-05-10T00:15:12.752Z,23.80
2023-05-10T00:17:39.883Z,22.90
2023-05-10T00:20:07.421Z,25.38
2023-05-10T00:22:34.303Z,23.58
2023-05-10T00:25:01.072Z,22.35
2023-05-10T00:27:27.889Z,25.65
2023-05-10T00:29:54.628Z,23.40
2023-05-10T00:32:21.711Z,24.17
2023-05-10T00:34:48.763Z,23.20
2023-05-10T00:37:15.628Z,24.35
2023-05-10T00:39:42.409Z,25.67
2023-05-10T00:42:09.296Z,24.90
2023-05-10T00:44:36.240Z,29.65
2023-05-10T00:47:04.965Z,26.17
2023-05-10T00:49:32.258Z,26.85
2023-05-10T00:51:59.186Z,26.13
2023-05-10T00:54:26.065Z,26.25
2023-05-10T00:56:53.196Z,27.60
2023-05-10T00:59:20.637Z,27.40
2023-05-10T01:01:47.707Z,23.40
2023-05-10T01:04:15.752Z,27.15
2023-05-10T01:06:43.497Z,27.10
2023-05-10T01:09:12.783Z,28.00
2023-05-10T01:11:40.833Z,25.23
2023-05-10T01:14:07.967Z,25.92
2023-05-10T01:16:40.314Z,27.20
2023-05-10T01:19:18.172Z,27.38
2023-05-10T01:21:53.217Z,24.70
2023-05-10T01:24:57.498Z,24.77
2023-05-10T01:27:41.861Z,25.95
2023-05-10T01:30:18.122Z,25.02
2023-05-10T01:33:11.666Z,24.88
2023-05-10T01:35:50.569Z,26.15
2023-05-10T01:38:44.342Z,27.45
2023-05-10T01:41:42.678Z,29.75
2023-05-10T01:44:12.447Z,28.77
2023-05-10T01:46:41.245Z,29.67
2023-05-10T01:49:25.042Z,23.50
2023-05-10T01:51:58.302Z,28.90
2023-05-10T01:54:25.702Z,23.35
2023-05-10T01:57:06.547Z,30.17
2023-05-10T01:59:42.647Z,27.85
2023-05-10T02:02:13.668Z,36.75
2023-05-10T02:04:41.962Z,26.15
2023-05-10T02:07:10.658Z,32.00
2023-05-10T02:09:39.248Z,30.48
2023-05-10T02:12:07.874Z,32.28
2023-05-10T02:14:37.791Z,30.67
2023-05-10T02:17:09.386Z,31.20
2023-05-10T02:19:38.888Z,34.85
2023-05-10T02:22:07.241Z,29.40
2023-05-10T02:24:36.014Z,29.75
2023-05-10T02:27:04.695Z,27.20
2023-05-10T02:29:32.864Z,30.88
2023-05-10T02:32:00.987Z,32.08
2023-05-10T02:34:29.366Z,30.05
2023-05-10T02:36:57.365Z,35.83
2023-05-10T02:39:25.820Z,32.95
2023-05-10T02:41:54.810Z,28.73
2023-05-10T02:44:22.680Z,29.77
2023-05-10T02:46:49.726Z,29.88
2023-05-10T02:49:17.199Z,31.05
2023-05-10T02:51:51.246Z,21.98
2023-05-10T02:54:24.540Z,34.17
2023-05-10T02:56:57.394Z,40.08
2023-05-10T02:59:24.372Z,40.97
2023-05-10T03:01:51.382Z,21.25
2023-05-10T03:04:18.690Z,41.92
2023-05-10T03:06:45.946Z,46.08
2023-05-10T03:09:16.670Z,42.47
2023-05-10T03:12:10.643Z,41.65
2023-05-10T03:14:51.202Z,33.80
2023-05-10T03:17:29.682Z,40.88
2023-05-10T03:19:59.031Z,30.33
2023-05-10T03:23:12.711Z,48.42
2023-05-10T03:25:41.446Z,48.35
2023-05-10T03:28:09.741Z,47.88
2023-05-10T03:30:37.516Z,42.67
2023-05-10T03:33:07.920Z,42.78
2023-05-10T03:35:35.160Z,42.92
2023-05-10T03:38:02.764Z,30.75
2023-05-10T03:40:32.467Z,42.10
2023-05-10T03:42:59.974Z,41.22
2023-05-10T03:45:27.003Z,40.72
2023-05-10T03:47:55.174Z,42.80
2023-05-10T03:50:22.790Z,43.92
2023-05-10T03:52:49.772Z,41.70
2023-05-10T03:55:17.327Z,34.08
2023-05-10T03:57:44.384Z,36.97
2023-05-10T04:00:11.739Z,36.97
2023-05-10T04:02:38.797Z,31.75
2023-05-10T04:05:06.342Z,39.92
2023-05-10T04:07:34.213Z,32.47
2023-05-10T04:10:01.306Z,36.92
2023-05-10T04:12:28.258Z,42.33
2023-05-10T04:14:55.773Z,40.45
2023-05-10T04:17:22.724Z,38.95
2023-05-10T04:19:49.484Z,38.85
2023-05-10T04:22:17.062Z,42.25
2023-05-10T04:24:44.057Z,35.65
2023-05-10T04:27:12.433Z,35.92
2023-05-10T04:29:39.434Z,32.30
2023-05-10T04:32:06.487Z,33.10
2023-05-10T04:34:35.217Z,34.10
2023-05-10T04:37:02.482Z,34.58
2023-05-10T04:39:29.320Z,35.08
2023-05-10T04:41:56.166Z,31.02
2023-05-10T04:44:22.915Z,40.10
2023-05-10T04:46:49.805Z,32.00
2023-05-10T04:49:17.090Z,38.33
2023-05-10T04:51:43.884Z,34.92
2023-05-10T04:54:11.260Z,37.17
2023-05-10T04:56:38.337Z,38.13
2023-05-10T04:59:05.551Z,35.05
2023-05-10T05:01:32.608Z,41.15
2023-05-10T05:04:00.566Z,35.35
2023-05-10T05:06:28.424Z,40.22
2023-05-10T05:08:55.313Z,39.42
2023-05-10T05:11:23.576Z,33.10
2023-05-10T05:13:52.576Z,46.40
2023-05-10T05:16:19.777Z,40.08
2023-05-10T05:18:47.760Z,48.40
2023-05-10T05:21:17.794Z,38.13
2023-05-10T05:23:44.902Z,45.83
2023-05-10T05:26:11.929Z,42.60
2023-05-10T05:28:39.962Z,41.33
2023-05-10T05:31:08.786Z,41.55
2023-05-10T05:33:35.875Z,42.97
2023-05-10T05:36:03.787Z,44.95
2023-05-10T05:38:30.603Z,46.38
2023-05-10T05:40:58.985Z,43.38
2023-05-10T05:43:26.369Z,45.10
2023-05-10T05:45:59.578Z,52.20
2023-05-10T05:48:28.649Z,43.10
2023-05-10T05:50:58.423Z,44.78
2023-05-10T05:53:26.826Z,37.75
2023-05-10T05:55:59.436Z,42.78
2023-05-10T05:58:27.165Z,44.72
2023-05-10T06:00:58.649Z,41.28
2023-05-10T06:03:28.700Z,37.67
2023-05-10T06:05:57.553Z,41.45
2023-05-10T06:08:29.368Z,31.63
2023-05-10T06:13:24.198Z,31.27
2023-05-10T06:15:51.337Z,23.73
2023-05-10T06:18:18.410Z,27.73
2023-05-10T06:20:45.482Z,31.13
2023-05-10T06:23:12.386Z,30.70
2023-05-10T06:25:39.076Z,36.33
2023-05-10T06:28:06.114Z,30.55
2023-05-10T06:30:32.840Z,33.40
2023-05-10T06:32:59.871Z,33.60
2023-05-10T06:35:26.793Z,33.53
2023-05-10T06:37:54.214Z,35.63
2023-05-10T06:40:21.502Z,41.38
2023-05-10T06:42:49.351Z,37.65
2023-05-10T06:45:16.983Z,34.92
2023-05-10T06:47:44.317Z,33.38
2023-05-10T06:50:12.539Z,30.38
2023-05-10T06:52:39.705Z,29.02
2023-05-10T06:55:09.429Z,25.73
2023-05-10T06:57:37.761Z,27.00
2023-05-10T07:00:06.042Z,24.10
2023-05-10T07:02:34.640Z,21.40
2023-05-10T07:05:06.135Z,21.08
2023-05-10T07:07:37.716Z,18.08
2023-05-10T07:10:07.811Z,16.90
2023-05-10T07:12:39.286Z,17.95
2023-05-10T07:15:07.405Z,16.10
2023-05-10T07:17:37.546Z,12.35
2023-05-10T07:20:05.748Z,15.40
2023-05-10T07:22:32.633Z,12.65
2023-05-10T07:24:59.537Z,13.18
2023-05-10T07:27:29.245Z,11.07
2023-05-10T07:29:57.059Z,12.10
2023-05-10T07:32:26.127Z,11.68
2023-05-10T07:34:56.020Z,12.43
2023-05-10T07:37:22.818Z,12.10
2023-05-10T07:39:49.800Z,13.40
2023-05-10T07:42:16.914Z,15.55
2023-05-10T07:44:44.360Z,12.63
2023-05-10T07:47:14.425Z,14.00
2023-05-10T07:49:50.195Z,10.77
2023-05-10T07:52:17.277Z,12.48
2023-05-10T07:54:45.865Z,11.25
2023-05-10T07:57:15.569Z,12.85
2023-05-10T07:59:43.128Z,11.50
2023-05-10T08:02:10.167Z,12.93
2023-05-10T08:04:38.630Z,11.63
2023-05-10T08:07:07.553Z,11.25
2023-05-10T08:09:35.066Z,12.20
2023-05-10T08:12:01.899Z,12.07
2023-05-10T08:14:30.446Z,11.57
2023-05-10T08:16:58.407Z,11.38
2023-05-10T08:19:27.668Z,12.65
2023-05-10T08:21:56.662Z,12.95
2023-05-10T08:24:31.177Z,11.95
2023-05-10T08:26:58.472Z,11.10
2023-05-10T08:29:26.637Z,10.88
2023-05-10T08:31:56.215Z,12.02
2023-05-10T08:34:23.348Z,10.20
2023-05-10T08:36:50.754Z,11.23
2023-05-10T08:39:29.896Z,12.25
2023-05-10T08:42:02.776Z,10.68
2023-05-10T08:44:36.532Z,12.70
2023-05-10T08:47:14.886Z,11.60
2023-05-10T08:49:43.885Z,11.65
2023-05-10T08:52:14.263Z,11.40
2023-05-10T08:54:41.975Z,13.30
2023-05-10T08:57:09.341Z,13.18
2023-05-10T08:59:39.707Z,13.85
2023-05-10T09:02:07.481Z,10.35
2023-05-10T09:04:36.684Z,11.38
2023-05-10T09:07:03.920Z,11.32
2023-05-10T09:09:31.434Z,10.18
2023-05-10T09:11:58.325Z,12.20
2023-05-10T09:14:26.171Z,10.07
2023-05-10T09:16:55.978Z,9.30
2023-05-10T09:19:22.851Z,9.77
2023-05-10T09:21:50.518Z,7.80
2023-05-10T09:24:21.810Z,8.00
2023-05-10T09:26:49.887Z,8.68
2023-05-10T09:29:17.846Z,7.35
2023-05-10T09:31:53.816Z,7.88
2023-05-10T09:34:41.535Z,7.28
2023-05-10T09:37:09.564Z,6.03
2023-05-10T09:39:38.447Z,7.88
2023-05-10T09:42:08.010Z,8.10
2023-05-10T09:44:36.495Z,7.63
2023-05-10T09:47:08.443Z,8.10
2023-05-10T09:49:37.693Z,6.82
2023-05-10T09:52:09.036Z,8.30
2023-05-10T09:54:39.010Z,5.63
2023-05-10T09:57:38.439Z,7.20
2023-05-10T10:00:13.505Z,6.28
2023-05-10T10:02:42.907Z,5.13
2023-05-10T10:05:20.303Z,4.68
2023-05-10T10:07:47.985Z,5.32
2023-05-10T10:13:03.395Z,5.88
2023-05-10T10:15:45.214Z,8.05
2023-05-10T10:18:18.757Z,5.43
2023-05-10T10:20:47.383Z,8.00
2023-05-10T10:23:17.927Z,6.65
2023-05-10T10:25:51.005Z,7.28
2023-05-10T10:29:09.056Z,6.82
2023-05-10T10:31:58.238Z,6.28
2023-05-10T10:34:31.610Z,6.93
2023-05-10T10:37:04.798Z,8.23
2023-05-10T10:39:32.034Z,5.70
2023-05-10T10:42:00.332Z,6.60
2023-05-10T10:44:32.396Z,7.70
2023-05-10T10:50:03.357Z,6.60
2023-05-10T10:52:37.684Z,7.18
2023-05-10T10:55:26.174Z,7.78
2023-05-10T10:58:02.043Z,8.15
2023-05-10T11:00:40.417Z,6.43
2023-05-10T11:03:20.161Z,5.72
2023-05-10T11:05:53.486Z,6.47
2023-05-10T11:09:01.594Z,6.22
2023-05-10T11:11:29.895Z,5.80
2023-05-10T11:14:06.957Z,5.00
2023-05-10T11:16:46.420Z,8.20
2023-05-10T11:19:16.539Z,6.15
2023-05-10T11:22:13.879Z,6.03
2023-05-10T11:24:42.138Z,5.13
2023-05-10T11:27:12.478Z,7.35
2023-05-10T11:29:39.776Z,6.45
2023-05-10T11:32:09.681Z,5.88
2023-05-10T11:34:36.555Z,7.38
2023-05-10T11:37:04.750Z,5.50
2023-05-10T11:39:33.643Z,5.45
2023-05-10T11:42:07.595Z,6.07
2023-05-10T11:44:37.363Z,5.07
2023-05-10T11:47:12.658Z,6.20
2023-05-10T11:49:41.292Z,5.30
2023-05-10T11:52:14.792Z,4.88
2023-05-10T11:54:58.911Z,4.80
2023-05-10T11:57:29.689Z,4.80
2023-05-10T12:00:01.156Z,4.22
2023-05-10T12:02:29.182Z,4.57
2023-05-10T12:04:57.464Z,5.25
2023-05-10T12:07:26.012Z,5.25
2023-05-10T12:10:16.172Z,4.00
2023-05-10T12:12:45.917Z,4.53
2023-05-10T12:15:20.847Z,5.00
2023-05-10T12:17:48.654Z,4.53
2023-05-10T12:20:17.824Z,5.43
2023-05-10T12:23:00.706Z,3.65
2023-05-10T12:25:36.796Z,3.38
2023-05-10T12:28:23.888Z,3.55
2023-05-10T12:30:55.457Z,4.18
2023-05-10T12:33:33.167Z,4.40
2023-05-10T12:36:06.080Z,3.95
2023-05-10T12:38:40.764Z,4.53
2023-05-10T12:41:17.195Z,3.83
2023-05-10T12:43:59.484Z,3.88
2023-05-10T12:49:08.658Z,4.00
2023-05-10T12:51:43.613Z,4.53
2023-05-10T12:54:13.220Z,4.70
2023-05-10T12:56:42.878Z,4.47
2023-05-10T12:59:10.559Z,3.63
2023-05-10T13:01:38.402Z,3.55
2023-05-10T13:04:08.300Z,4.07
2023-05-10T13:06:37.754Z,3.92
2023-05-10T13:09:05.132Z,4.18
2023-05-10T13:11:32.486Z,4.97
2023-05-10T13:14:01.530Z,4.15
2023-05-10T13:16:29.519Z,3.70
2023-05-10T13:18:57.032Z,5.00
2023-05-10T13:21:26.113Z,5.03
2023-05-10T13:23:53.105Z,5.03
2023-05-10T13:26:21.527Z,6.13
2023-05-10T13:28:49.992Z,6.07
2023-05-10T13:31:16.846Z,3.92
2023-05-10T13:33:45.385Z,6.60
2023-05-10T13:36:12.125Z,4.93
2023-05-10T13:38:39.227Z,5.22
2023-05-10T13:41:06.017Z,4.85
2023-05-10T13:43:32.860Z,6.63
2023-05-10T13:46:02.372Z,6.18
2023-05-10T13:48:32.591Z,6.57
2023-05-10T13:50:59.394Z,5.45
2023-05-10T13:53:26.327Z,5.63
2023-05-10T13:55:54.347Z,5.25
2023-05-10T13:58:21.702Z,5.85
2023-05-10T14:01:02.321Z,7.22
2023-05-10T14:03:31.016Z,5.83
2023-05-10T14:05:59.023Z,6.25
2023-05-10T14:08:28.017Z,7.03
2023-05-10T14:11:06.761Z,6.40
2023-05-10T14:13:36.862Z,7.90
2023-05-10T14:16:04.197Z,7.75
2023-05-10T14:18:31.701Z,8.52
2023-05-10T14:20:59.637Z,8.00
2023-05-10T14:23:27.750Z,9.05
2023-05-10T14:25:54.698Z,8.90
2023-05-10T14:28:22.106Z,9.27
2023-05-10T14:30:49.011Z,8.65
2023-05-10T14:33:16.118Z,8.98
2023-05-10T14:35:43.451Z,7.80
2023-05-10T14:38:11.750Z,9.13
2023-05-10T14:40:38.833Z,9.05
2023-05-10T14:43:05.698Z,8.10
2023-05-10T14:45:32.560Z,8.02
2023-05-10T14:48:00.238Z,8.52
2023-05-10T14:50:36.513Z,8.50
2023-05-10T14:53:07.093Z,9.32
2023-05-10T14:55:33.929Z,9.30
2023-05-10T14:58:03.025Z,9.90
2023-05-10T15:00:31.578Z,7.32
2023-05-10T15:03:02.136Z,8.25
2023-05-10T15:05:33.756Z,7.82
2023-05-10T15:08:10.975Z,6.95
2023-05-10T15:10:37.914Z,8.20
2023-05-10T15:13:05.673Z,10.88
2023-05-10T15:15:33.674Z,7.93
2023-05-10T15:18:00.999Z,7.13
2023-05-10T15:20:29.928Z,8.25
2023-05-10T15:22:56.938Z,8.20
2023-05-10T15:25:25.678Z,6.75
2023-05-10T15:27:52.704Z,9.18
2023-05-10T15:30:19.500Z,6.57
2023-05-10T15:32:46.382Z,7.07
2023-05-10T15:35:13.867Z,7.72
2023-05-10T15:37:40.853Z,6.47
2023-05-10T15:40:07.921Z,9.57
2023-05-10T15:42:36.656Z,6.85
2023-05-10T15:45:12.713Z,6.70
2023-05-10T15:47:40.940Z,6.25
2023-05-10T15:50:08.528Z,6.05
2023-05-10T15:52:36.360Z,5.75
2023-05-10T15:55:04.316Z,7.85
2023-05-10T15:57:31.227Z,6.28
2023-05-10T16:00:00.092Z,7.53
2023-05-10T16:02:27.279Z,6.43
2023-05-10T16:04:55.442Z,8.43
2023-05-10T16:07:22.666Z,7.20
2023-05-10T16:09:51.522Z,5.63
2023-05-10T16:12:18.505Z,6.35
2023-05-10T16:14:50.187Z,7.38
2023-05-10T16:17:20.780Z,6.43
2023-05-10T16:19:47.745Z,5.85
2023-05-10T16:22:15.940Z,6.63
2023-05-10T16:24:42.728Z,7.35
2023-05-10T16:27:11.259Z,7.40
2023-05-10T16:29:38.465Z,7.13
2023-05-10T16:32:08.019Z,7.32
2023-05-10T16:34:36.259Z,7.68
2023-05-10T16:37:03.804Z,5.57
2023-05-10T16:39:30.557Z,6.97
2023-05-10T16:41:58.871Z,5.70
2023-05-10T16:44:26.989Z,6.72
2023-05-10T16:46:55.369Z,6.00
2023-05-10T16:49:26.224Z,4.93
2023-05-10T16:51:54.481Z,6.78
2023-05-10T16:54:23.486Z,5.13
2023-05-10T16:56:51.830Z,5.05
2023-05-10T16:59:19.991Z,4.70
2023-05-10T17:01:47.365Z,3.50
2023-05-10T17:04:15.574Z,4.07
2023-05-10T17:06:43.684Z,3.95
2023-05-10T17:09:13.986Z,4.10
2023-05-10T17:11:44.809Z,4.43
2023-05-10T17:14:13.845Z,3.80
2023-05-10T17:16:41.738Z,3.80
2023-05-10T17:19:11.963Z,3.17
2023-05-10T17:21:45.903Z,4.07
2023-05-10T17:24:15.093Z,3.78
2023-05-10T17:26:45.774Z,5.15
2023-05-10T17:29:14.100Z,4.35
2023-05-10T17:31:42.345Z,5.22
2023-05-10T17:34:10.707Z,5.68
2023-05-10T17:36:38.219Z,5.13
2023-05-10T17:39:05.817Z,4.60
2023-05-10T17:41:36.143Z,3.60
2023-05-10T17:44:03.114Z,4.38
2023-05-10T17:46:30.352Z,6.60
2023-05-10T17:49:09.866Z,4.90
2023-05-10T17:51:40.459Z,5.13
2023-05-10T17:54:07.351Z,4.72
2023-05-10T17:56:36.655Z,4.40
2023-05-10T17:59:04.981Z,5.10
2023-05-10T18:01:31.688Z,4.57
2023-05-10T18:04:00.229Z,4.55
2023-05-10T18:09:08.603Z,5.07
2023-05-10T18:11:37.267Z,3.90
2023-05-10T18:14:04.994Z,5.00
2023-05-10T18:16:31.795Z,5.60
2023-05-10T18:18:59.012Z,5.93
2023-05-10T18:21:25.976Z,5.20
2023-05-10T18:23:52.936Z,5.65
2023-05-10T18:26:20.760Z,6.03
2023-05-10T18:28:47.705Z,5.75
2023-05-10T18:31:14.881Z,5.22
2023-05-10T18:33:42.189Z,6.97
2023-05-10T18:36:10.953Z,7.72
2023-05-10T18:38:40.480Z,5.15
2023-05-10T18:41:12.333Z,6.55
2023-05-10T18:43:39.150Z,5.95
2023-05-10T18:46:06.454Z,4.85
2023-05-10T18:48:33.615Z,5.35
2023-05-10T18:51:01.708Z,6.18
2023-05-10T18:53:33.105Z,5.60
2023-05-10T18:56:01.540Z,7.18
2023-05-10T18:58:29.718Z,5.25
2023-05-10T19:00:57.063Z,5.68
2023-05-10T19:03:23.878Z,5.28
2023-05-10T19:05:54.352Z,5.93
2023-05-10T19:08:25.991Z,6.90
2023-05-10T19:10:55.284Z,6.72
2023-05-10T19:13:24.951Z,6.43
2023-05-10T19:16:20.811Z,6.30
2023-05-10T19:18:48.122Z,5.60
2023-05-10T19:21:17.314Z,6.38
2023-05-10T19:23:49.485Z,6.35
2023-05-10T19:28:44.015Z,6.53
2023-05-10T19:31:11.181Z,6.15
2023-05-10T19:33:38.364Z,6.72
2023-05-10T19:36:05.660Z,6.22
2023-05-10T19:38:33.621Z,6.97
2023-05-10T19:41:00.473Z,6.82
2023-05-10T19:43:28.533Z,6.88
2023-05-10T19:45:59.027Z,7.22
2023-05-10T19:48:26.571Z,6.93
2023-05-10T19:50:57.104Z,7.22
2023-05-10T19:53:25.637Z,6.88
2023-05-10T19:55:56.525Z,8.25
2023-05-10T19:58:25.367Z,7.03
2023-05-10T20:00:53.009Z,8.20
2023-05-10T20:03:19.878Z,6.95
2023-05-10T20:05:47.781Z,9.27
2023-05-10T20:08:14.967Z,7.20
2023-05-10T20:10:43.214Z,7.43
2023-05-10T20:13:10.064Z,10.07
2023-05-10T20:15:37.262Z,6.60
2023-05-10T20:18:04.737Z,7.47
2023-05-10T20:20:32.528Z,6.47
2023-05-10T20:22:59.375Z,8.60
2023-05-10T20:25:26.443Z,8.55
2023-05-10T20:27:56.149Z,7.95
2023-05-10T20:30:24.420Z,6.53
2023-05-10T20:32:52.130Z,8.93
2023-05-10T20:35:23.533Z,9.75
2023-05-10T20:37:52.063Z,7.38
2023-05-10T20:40:20.531Z,7.25
2023-05-10T20:42:56.744Z,9.60
2023-05-10T20:45:23.616Z,7.90
2023-05-10T20:47:50.738Z,7.90
2023-05-10T20:50:18.840Z,9.02
2023-05-10T20:52:51.605Z,7.30
2023-05-10T20:55:19.251Z,7.13
2023-05-10T20:57:47.346Z,7.32
2023-05-10T21:00:15.481Z,8.43
2023-05-10T21:02:44.768Z,8.32
2023-05-10T21:05:12.314Z,8.40
2023-05-10T21:07:40.018Z,7.50
2023-05-10T21:10:11.414Z,11.20
2023-05-10T21:12:39.651Z,10.07
2023-05-10T21:15:09.764Z,8.45
2023-05-10T21:17:40.281Z,9.80
2023-05-10T21:20:09.322Z,9.15
2023-05-10T21:22:39.015Z,11.15
2023-05-10T21:25:06.464Z,8.93
2023-05-10T21:27:35.144Z,9.32
2023-05-10T21:30:02.256Z,9.65
2023-05-10T21:32:29.091Z,8.50
2023-05-10T21:34:57.146Z,8.00
2023-05-10T21:37:24.357Z,7.35
2023-05-10T21:39:52.800Z,9.05
2023-05-10T21:42:20.366Z,7.40
2023-05-10T21:44:49.526Z,8.10
2023-05-10T21:47:17.800Z,8.93
2023-05-10T21:49:46.001Z,8.65
2023-05-10T21:52:13.988Z,8.32
2023-05-10T21:54:41.893Z,9.48
2023-05-10T21:57:08.840Z,9.85
2023-05-10T21:59:37.975Z,8.13
2023-05-10T22:02:04.877Z,9.82
2023-05-10T22:04:31.867Z,7.47
2023-05-10T22:06:59.836Z,8.80
2023-05-10T22:09:26.945Z,9.40
2023-05-10T22:11:53.696Z,8.98
2023-05-10T22:14:22.920Z,9.07
2023-05-10T22:17:05.977Z,10.68
2023-05-10T22:19:34.236Z,10.45
2023-05-10T22:22:03.833Z,9.60
2023-05-10T22:24:31.315Z,11.50
2023-05-10T22:26:59.744Z,10.43
2023-05-10T22:29:26.557Z,11.50
2023-05-10T22:31:53.409Z,12.30
2023-05-10T22:34:20.756Z,11.00
2023-05-10T22:36:48.939Z,12.38
2023-05-10T22:39:16.697Z,11.45
2023-05-10T22:41:43.742Z,11.00
2023-05-10T22:44:13.144Z,11.00
2023-05-10T22:46:40.546Z,10.88
2023-05-10T22:49:08.143Z,12.95
2023-05-10T22:51:35.208Z,12.35
2023-05-10T22:54:02.515Z,12.93
2023-05-10T22:56:29.586Z,12.75
2023-05-10T22:58:57.585Z,11.88
2023-05-10T23:01:27.068Z,12.02
2023-05-10T23:03:54.391Z,11.50
2023-05-10T23:06:24.952Z,12.18
2023-05-10T23:08:57.190Z,12.63
2023-05-10T23:13:51.490Z,11.75
2023-05-10T23:16:18.946Z,12.15
2023-05-10T23:18:47.406Z,12.32
2023-05-10T23:21:14.306Z,13.35
2023-05-10T23:23:41.696Z,17.13
2023-05-10T23:26:09.039Z,12.57
2023-05-10T23:28:36.488Z,14.30
2023-05-10T23:31:03.647Z,13.52
2023-05-10T23:33:33.664Z,14.40
2023-05-10T23:36:01.095Z,13.57
2023-05-10T23:41:08.728Z,15.90
2023-05-10T23:43:36.096Z,14.75
2023-05-10T23:46:05.665Z,14.48
2023-05-10T23:48:33.880Z,13.88
2023-05-10T23:51:07.827Z,16.52
2023-05-10T23:53:34.983Z,14.75
2023-05-10T23:56:02.167Z,14.13
2023-05-10T23:58:30.675Z,14.13
